createdAt,value
2023-05-12T00:03:32.623Z,10.83
2023-05-12T00:08:39.891Z,10.83
2023-05-12T00:13:46.956Z,10.83
2023-05-12T00:18:54.061Z,10.81
2023-05-12T00:24:01.173Z,10.78
2023-05-12T00:29:08.236Z,10.76
2023-05-12T00:34:16.037Z,10.73
2023-05-12T00:39:23.067Z,10.70
2023-05-12T00:44:30.075Z,10.65
2023-05-12T00:49:37.546Z,10.60
2023-05-12T00:54:45.459Z,10.55
2023-05-12T00:59:53.650Z,10.50
2023-05-12T01:05:00.884Z,10.44
2023-05-12T01:10:20.204Z,10.40
2023-05-12T01:15:28.108Z,10.37
2023-05-12T01:20:36.191Z,10.32
2023-05-12T01:25:44.976Z,10.29
2023-05-12T01:30:52.409Z,10.23
2023-05-12T01:35:59.633Z,10.16
2023-05-12T01:41:05.821Z,10.08
2023-05-12T01:46:13.158Z,10.01
2023-05-12T01:51:21.511Z,9.94
2023-05-12T01:56:29.015Z,9.87
2023-05-12T02:01:37.306Z,9.79
2023-05-12T02:06:46.180Z,9.73
2023-05-12T02:11:53.942Z,9.67
2023-05-12T02:17:02.770Z,9.60
2023-05-12T02:22:10.452Z,9.54
2023-05-12T02:27:17.577Z,9.47
2023-05-12T02:32:28.246Z,9.41
2023-05-12T02:37:38.704Z,9.35
2023-05-12T02:42:46.170Z,9.30
2023-05-12T02:47:53.429Z,9.25
2023-05-12T02:53:00.872Z,9.22
2023-05-12T02:58:08.300Z,9.20
2023-05-12T03:03:15.543Z,9.17
2023-05-12T03:08:22.746Z,9.15
2023-05-12T03:13:30.172Z,9.12
2023-05-12T03:18:37.564Z,9.12
2023-05-12T03:23:46.406Z,9.13
2023-05-12T03:28:53.477Z,9.12
2023-05-12T03:34:00.643Z,9.13
2023-05-12T03:39:09.263Z,9.16
2023-05-12T03:44:17.025Z,9.23
2023-05-12T03:49:24.106Z,9.36
2023-05-12T03:54:31.970Z,9.64
2023-05-12T03:59:39.118Z,10.11
2023-05-12T04:04:46.083Z,10.62
2023-05-12T04:09:53.141Z,11.04
2023-05-12T04:15:00.507Z,11.41
2023-05-12T04:20:09.394Z,11.81
2023-05-12T04:25:16.552Z,12.23
2023-05-12T04:30:23.758Z,12.65
2023-05-12T04:35:31.331Z,13.06
2023-05-12T04:40:38.566Z,13.30
2023-05-12T04:45:46.286Z,13.54
2023-05-12T04:50:53.798Z,13.68
2023-05-12T04:56:00.972Z,13.68
2023-05-12T05:01:12.450Z,13.73
2023-05-12T05:06:20.090Z,13.72
2023-05-12T05:11:28.505Z,13.81
2023-05-12T05:16:35.772Z,14.06
2023-05-12T05:21:42.883Z,14.23
2023-05-12T05:26:50.215Z,14.35
2023-05-12T05:31:58.593Z,14.30
2023-05-12T05:37:05.930Z,14.24
2023-05-12T05:42:13.135Z,14.21
2023-05-12T05:47:20.612Z,14.29
2023-05-12T05:52:28.383Z,14.39
2023-05-12T05:57:35.510Z,14.43
2023-05-12T06:02:43.733Z,14.71
2023-05-12T06:07:52.623Z,15.07
2023-05-12T06:12:59.816Z,15.50
2023-05-12T06:18:07.695Z,15.81
2023-05-12T06:23:15.647Z,16.20
2023-05-12T06:28:25.600Z,16.83
2023-05-12T06:33:32.943Z,17.47
2023-05-12T06:38:42.492Z,18.08
2023-05-12T06:43:49.625Z,18.68
2023-05-12T06:48:56.806Z,19.14
2023-05-12T06:54:04.596Z,19.67
2023-05-12T06:59:12.907Z,19.81
2023-05-12T07:04:21.741Z,20.13
2023-05-12T07:09:29.103Z,20.56
2023-05-12T07:14:39.935Z,20.82
2023-05-12T07:19:47.545Z,21.09
2023-05-12T07:24:54.940Z,21.25
2023-05-12T07:30:02.203Z,21.25
2023-05-12T07:35:10.624Z,21.21
2023-05-12T07:40:18.358Z,21.35
2023-05-12T07:45:25.959Z,21.59
2023-05-12T07:50:33.224Z,21.74
2023-05-12T07:55:38.790Z,21.80
2023-05-12T08:00:47.223Z,21.64
2023-05-12T08:05:54.360Z,21.88
2023-05-12T08:11:01.825Z,21.98
2023-05-12T08:16:08.948Z,21.92
2023-05-12T08:21:16.039Z,21.73
2023-05-12T08:26:23.122Z,21.21
2023-05-12T08:31:30.692Z,20.75
2023-05-12T08:36:40.063Z,20.36
2023-05-12T08:41:52.855Z,19.92
2023-05-12T08:47:02.045Z,19.45
2023-05-12T08:52:12.596Z,19.26
2023-05-12T08:57:20.008Z,19.25
2023-05-12T09:02:37.751Z,19.35
2023-05-12T09:07:53.754Z,19.22
2023-05-12T09:13:15.031Z,19.05
2023-05-12T09:18:33.350Z,18.99
2023-05-12T09:23:40.960Z,19.04
2023-05-12T09:28:46.471Z,19.07
2023-05-12T09:33:54.390Z,19.08
2023-05-12T09:39:07.165Z,19.04
2023-05-12T09:44:18.141Z,19.13
2023-05-12T09:49:27.163Z,19.24
2023-05-12T09:54:34.829Z,19.30
2023-05-12T09:59:44.807Z,19.25
2023-05-12T10:04:58.974Z,19.26
2023-05-12T10:10:08.218Z,19.23
2023-05-12T10:15:18.346Z,19.22
2023-05-12T10:20:26.462Z,19.22
2023-05-12T10:25:34.155Z,19.27
2023-05-12T10:30:43.169Z,19.40
2023-05-12T10:35:50.477Z,19.43
2023-05-12T10:41:01.247Z,19.43
2023-05-12T10:46:21.000Z,19.45
2023-05-12T10:51:29.776Z,19.56
2023-05-12T10:56:46.651Z,19.55
2023-05-12T11:02:03.936Z,19.65
2023-05-12T11:07:14.160Z,19.66
2023-05-12T11:12:22.051Z,19.62
2023-05-12T11:17:27.693Z,19.66
2023-05-12T11:23:34.548Z,19.63
2023-05-12T11:28:48.247Z,19.59
2023-05-12T11:34:12.105Z,19.71
2023-05-12T11:39:21.870Z,19.71
2023-05-12T11:44:31.193Z,19.70
2023-05-12T11:49:49.334Z,19.68
2023-05-12T11:55:01.137Z,19.77
2023-05-12T12:00:10.257Z,19.86
2023-05-12T12:05:21.432Z,20.00
2023-05-12T12:10:29.374Z,20.16
2023-05-12T12:15:37.221Z,20.24
2023-05-12T12:20:44.702Z,20.34
2023-05-12T12:25:52.701Z,20.43
2023-05-12T12:31:01.040Z,20.45
2023-05-12T12:36:08.960Z,20.40
2023-05-12T12:41:18.389Z,20.31
2023-05-12T12:46:25.872Z,20.37
2023-05-12T12:51:44.964Z,20.34
2023-05-12T12:56:53.814Z,20.36
2023-05-12T13:02:02.677Z,20.36
2023-05-12T13:07:11.673Z,20.32
2023-05-12T13:12:18.910Z,20.31
2023-05-12T13:17:26.027Z,20.29
2023-05-12T13:22:33.309Z,20.33
2023-05-12T13:27:40.920Z,20.41
2023-05-12T13:32:48.354Z,20.48
2023-05-12T13:37:54.686Z,20.51
2023-05-12T13:43:01.840Z,20.60
2023-05-12T13:48:09.457Z,20.60
2023-05-12T13:53:16.753Z,20.49
2023-05-12T13:58:23.784Z,20.40
2023-05-12T14:03:31.353Z,20.36
2023-05-12T14:08:40.481Z,20.37
2023-05-12T14:13:47.736Z,20.26
2023-05-12T14:19:00.216Z,20.32
2023-05-12T14:24:08.935Z,20.36
2023-05-12T14:29:15.967Z,20.36
2023-05-12T14:34:32.876Z,20.40
2023-05-12T14:39:39.933Z,20.50
2023-05-12T14:44:46.994Z,20.50
2023-05-12T14:49:57.491Z,20.44
2023-05-12T14:55:05.720Z,20.41
2023-05-12T15:00:16.346Z,20.31
2023-05-12T15:05:29.927Z,20.24
2023-05-12T15:10:44.366Z,20.23
2023-05-12T15:15:55.082Z,20.21
2023-05-12T15:21:04.094Z,20.13
2023-05-12T15:26:21.079Z,20.07
2023-05-12T15:31:38.798Z,20.06
2023-05-12T15:36:49.146Z,20.10
2023-05-12T15:41:56.937Z,20.07
2023-05-12T15:47:04.268Z,20.09
2023-05-12T15:52:11.689Z,20.12
2023-05-12T15:57:18.817Z,20.10
2023-05-12T16:02:25.999Z,20.06
2023-05-12T16:07:31.904Z,20.05
2023-05-12T16:12:39.349Z,20.00
2023-05-12T16:17:44.886Z,19.98
2023-05-12T16:22:53.525Z,19.94
2023-05-12T16:28:00.567Z,19.86
2023-05-12T16:33:20.613Z,19.81
2023-05-12T16:38:29.767Z,19.73
2023-05-12T16:43:38.804Z,19.67
2023-05-12T16:48:45.918Z,19.65
2023-05-12T16:53:53.267Z,19.63
2023-05-12T16:58:59.098Z,19.59
2023-05-12T17:04:06.916Z,19.53
2023-05-12T17:09:14.144Z,19.48
2023-05-12T17:14:21.375Z,19.44
2023-05-12T17:19:31.490Z,19.41
2023-05-12T17:24:38.676Z,19.36
2023-05-12T17:29:46.195Z,19.29
2023-05-12T17:34:51.848Z,19.20
2023-05-12T17:40:01.087Z,19.10
2023-05-12T17:45:10.287Z,19.00
2023-05-12T17:50:17.547Z,18.91
2023-05-12T17:55:25.585Z,18.88
2023-05-12T18:00:32.869Z,18.81
2023-05-12T18:05:41.233Z,18.71
2023-05-12T18:10:49.078Z,18.60
2023-05-12T18:15:56.813Z,18.43
2023-05-12T18:21:04.759Z,18.25
2023-05-12T18:26:11.892Z,18.04
2023-05-12T18:31:20.224Z,17.88
2023-05-12T18:36:28.314Z,17.73
2023-05-12T18:41:35.388Z,17.58
2023-05-12T18:46:42.653Z,17.41
2023-05-12T18:51:49.740Z,17.25
2023-05-12T18:56:57.030Z,17.07
2023-05-12T19:02:04.922Z,16.89
2023-05-12T19:07:15.622Z,16.69
2023-05-12T19:12:22.797Z,16.52
2023-05-12T19:17:30.236Z,16.35
2023-05-12T19:22:39.995Z,16.18
2023-05-12T19:27:47.580Z,16.03
2023-05-12T19:32:53.776Z,15.89
2023-05-12T19:38:00.956Z,15.75
2023-05-12T19:43:10.283Z,15.62
2023-05-12T19:48:17.915Z,15.49
2023-05-12T19:53:25.043Z,15.37
2023-05-12T19:58:32.319Z,15.24
2023-05-12T20:03:39.476Z,15.12
2023-05-12T20:08:46.908Z,14.98
2023-05-12T20:13:54.056Z,14.81
2023-05-12T20:19:02.805Z,14.65
2023-05-12T20:24:10.996Z,14.51
2023-05-12T20:29:21.013Z,14.35
2023-05-12T20:34:27.989Z,14.21
2023-05-12T20:39:35.042Z,14.10
2023-05-12T20:44:42.450Z,14.01
2023-05-12T20:49:50.124Z,13.94
2023-05-12T20:54:59.893Z,13.86
2023-05-12T21:00:09.162Z,13.77
2023-05-12T21:05:16.680Z,13.65
2023-05-12T21:10:24.508Z,13.52
2023-05-12T21:15:30.028Z,13.38
2023-05-12T21:20:37.458Z,13.22
2023-05-12T21:25:44.882Z,13.06
2023-05-12T21:30:51.945Z,12.94
2023-05-12T21:36:01.601Z,12.85
2023-05-12T21:41:09.206Z,12.78
2023-05-12T21:46:16.401Z,12.72
2023-05-12T21:51:23.572Z,12.64
2023-05-12T21:56:31.049Z,12.57
2023-05-12T22:01:38.466Z,12.51
2023-05-12T22:06:49.737Z,12.45
2023-05-12T22:11:57.537Z,12.40
2023-05-12T22:17:05.265Z,12.36
2023-05-12T22:22:12.764Z,12.32
2023-05-12T22:27:22.275Z,12.25
2023-05-12T22:32:29.806Z,12.17
2023-05-12T22:37:37.379Z,12.07
2023-05-12T22:42:44.755Z,11.97
2023-05-12T22:47:52.229Z,11.90
2023-05-12T22:53:00.404Z,11.85
2023-05-12T22:58:07.532Z,11.81
2023-05-12T23:03:14.579Z,11.78
2023-05-12T23:08:21.696Z,11.73
2023-05-12T23:13:28.792Z,11.68
2023-05-12T23:18:35.738Z,11.60
2023-05-12T23:23:42.923Z,11.53
2023-05-12T23:28:49.921Z,11.45
2023-05-12T23:33:57.016Z,11.35
2023-05-12T23:39:04.355Z,11.26
2023-05-12T23:44:11.588Z,11.20
2023-05-12T23:49:18.668Z,11.18
2023-05-12T23:54:25.655Z,11.18
2023-05-12T23:59:32.661Z,11.19
